createdAt,value
2018-04-27T00:02:15.810Z,1.83
2018-04-27T00:04:43.258Z,1.92
2018-04-27T00:07:10.742Z,1.50
2018-04-27T00:09:38.195Z,1.70
2018-04-27T00:12:05.671Z,1.73
2018-04-27T00:14:33.153Z,1.50
2018-04-27T00:17:00.614Z,1.70
2018-04-27T00:19:28.154Z,2.10
2018-04-27T00:21:56.445Z,2.15
2018-04-27T00:24:24.671Z,2.50
2018-04-27T00:26:52.153Z,1.95
2018-04-27T00:29:19.720Z,1.98
2018-04-27T00:31:47.299Z,2.10
2018-04-27T00:34:14.736Z,2.10
2018-04-27T00:36:42.970Z,2.30
2018-04-27T00:39:10.452Z,2.15
2018-04-27T00:41:37.882Z,2.55
2018-04-27T00:44:06.106Z,2.20
2018-04-27T00:46:33.569Z,2.00
2018-04-27T00:49:01.043Z,1.90
2018-04-27T00:51:28.522Z,1.90
2018-04-27T00:53:56.816Z,2.40
2018-04-27T00:56:25.033Z,1.75
2018-04-27T00:58:52.500Z,2.05
2018-04-27T01:01:19.947Z,2.20
2018-04-27T01:03:48.181Z,2.05
2018-04-27T01:06:15.626Z,2.20
2018-04-27T01:08:43.206Z,1.85
2018-04-27T01:11:11.433Z,1.95
2018-04-27T01:13:38.884Z,2.03
2018-04-27T01:16:06.362Z,2.70
2018-04-27T01:18:33.807Z,1.90
2018-04-27T01:21:02.248Z,2.08
2018-04-27T01:23:29.674Z,2.90
2018-04-27T01:25:57.840Z,1.90
2018-04-27T01:28:25.286Z,2.58
2018-04-27T01:30:52.745Z,1.75
2018-04-27T01:33:20.202Z,1.85
2018-04-27T01:35:47.666Z,2.65
2018-04-27T01:38:15.887Z,2.70
2018-04-27T01:40:43.369Z,1.95
2018-04-27T01:43:10.820Z,2.50
2018-04-27T01:45:38.294Z,1.95
2018-04-27T01:48:05.750Z,2.40
2018-04-27T01:50:34.251Z,2.05
2018-04-27T01:53:02.478Z,2.28
2018-04-27T01:55:29.967Z,2.25
2018-04-27T01:57:57.431Z,2.00
2018-04-27T02:00:24.883Z,2.58
2018-04-27T02:02:53.097Z,2.20
2018-04-27T02:05:20.562Z,2.67
2018-04-27T02:07:48.027Z,3.20
2018-04-27T02:10:15.478Z,1.80
2018-04-27T02:12:43.711Z,2.50
2018-04-27T02:15:11.273Z,2.30
2018-04-27T02:17:39.500Z,2.80
2018-04-27T02:20:06.950Z,2.35
2018-04-27T02:22:34.426Z,2.05
2018-04-27T02:25:01.866Z,2.70
2018-04-27T02:27:29.372Z,2.33
2018-04-27T02:29:56.842Z,2.60
2018-04-27T02:32:24.284Z,2.40
2018-04-27T02:34:52.529Z,2.10
2018-04-27T02:37:19.985Z,2.58
2018-04-27T02:39:47.464Z,2.25
2018-04-27T02:42:14.907Z,2.97
2018-04-27T02:44:43.136Z,2.37
2018-04-27T02:47:10.719Z,3.35
2018-04-27T02:49:38.193Z,2.20
2018-04-27T02:52:05.628Z,2.60
2018-04-27T02:54:33.882Z,2.25
2018-04-27T02:57:01.342Z,2.20
2018-04-27T02:59:28.794Z,3.10
2018-04-27T03:01:56.246Z,2.70
2018-04-27T03:04:24.582Z,2.97
2018-04-27T03:06:52.035Z,2.20
2018-04-27T03:09:19.527Z,3.03
2018-04-27T03:11:46.997Z,2.05
2018-04-27T03:14:14.435Z,3.33
2018-04-27T03:16:42.681Z,2.83
2018-04-27T03:19:10.257Z,3.17
2018-04-27T03:21:37.655Z,3.12
2018-04-27T03:24:05.136Z,2.60
2018-04-27T03:26:32.565Z,2.45
2018-04-27T03:29:00.080Z,2.78
2018-04-27T03:31:27.558Z,2.92
2018-04-27T03:33:55.015Z,2.47
2018-04-27T03:36:22.491Z,2.70
2018-04-27T03:38:49.950Z,2.45
2018-04-27T03:41:17.422Z,2.50
2018-04-27T03:43:44.873Z,2.97
2018-04-27T03:46:12.335Z,2.83
2018-04-27T03:48:40.561Z,2.62
2018-04-27T03:51:08.805Z,2.55
2018-04-27T03:53:36.242Z,2.85
2018-04-27T03:56:03.722Z,2.62
2018-04-27T03:58:31.171Z,3.15
2018-04-27T04:01:10.552Z,3.60
2018-04-27T04:03:50.026Z,3.50
2018-04-27T04:06:17.501Z,3.10
2018-04-27T04:08:45.725Z,4.07
2018-04-27T04:11:13.190Z,3.90
2018-04-27T04:13:41.401Z,3.58
2018-04-27T04:16:08.845Z,4.40
2018-04-27T04:18:37.066Z,4.07
2018-04-27T04:21:04.536Z,3.30
2018-04-27T04:23:31.976Z,3.40
2018-04-27T04:26:03.663Z,3.05
2018-04-27T04:28:31.879Z,3.50
2018-04-27T04:30:59.365Z,3.60
2018-04-27T04:33:26.895Z,3.22
2018-04-27T04:35:54.314Z,3.22
2018-04-27T04:38:21.853Z,3.95
2018-04-27T04:40:49.210Z,3.80
2018-04-27T04:43:16.662Z,2.95
2018-04-27T04:45:44.141Z,3.00
2018-04-27T04:48:11.598Z,3.90
2018-04-27T04:50:39.057Z,3.30
2018-04-27T04:53:06.543Z,3.70
2018-04-27T04:55:33.955Z,3.55
2018-04-27T04:58:01.433Z,4.20
2018-04-27T05:00:28.903Z,3.80
2018-04-27T05:02:56.449Z,4.37
2018-04-27T05:05:23.822Z,3.90
2018-04-27T05:07:51.285Z,4.00
2018-04-27T05:10:18.727Z,5.37
2018-04-27T05:12:46.950Z,4.53
2018-04-27T05:15:15.007Z,4.30
2018-04-27T05:17:43.241Z,4.53
2018-04-27T05:20:10.220Z,4.22
2018-04-27T05:22:37.681Z,4.90
2018-04-27T05:25:05.125Z,4.70
2018-04-27T05:27:32.596Z,5.32
2018-04-27T05:30:00.771Z,4.57
2018-04-27T05:32:28.998Z,5.57
2018-04-27T05:34:56.464Z,5.10
2018-04-27T05:37:23.923Z,5.12
2018-04-27T05:39:51.392Z,4.65
2018-04-27T05:42:19.603Z,3.95
2018-04-27T05:44:47.075Z,3.90
2018-04-27T05:47:14.550Z,4.23
2018-04-27T05:49:42.019Z,5.40
2018-04-27T05:52:09.491Z,4.20
2018-04-27T05:54:37.737Z,5.57
2018-04-27T05:57:05.186Z,4.17
2018-04-27T05:59:32.675Z,4.43
2018-04-27T06:02:00.140Z,4.33
2018-04-27T06:04:27.607Z,4.23
2018-04-27T06:06:55.407Z,5.07
2018-04-27T06:09:22.885Z,4.07
2018-04-27T06:11:50.434Z,4.43
2018-04-27T06:14:18.633Z,4.53
2018-04-27T06:16:46.087Z,4.87
2018-04-27T06:19:14.394Z,4.63
2018-04-27T06:21:42.882Z,4.50
2018-04-27T06:24:10.342Z,4.90
2018-04-27T06:26:42.559Z,4.90
2018-04-27T06:29:10.166Z,4.90
2018-04-27T06:31:37.679Z,5.90
2018-04-27T06:34:05.958Z,5.23
2018-04-27T06:36:33.432Z,5.63
2018-04-27T06:39:00.918Z,4.90
2018-04-27T06:41:29.151Z,5.47
2018-04-27T06:43:56.776Z,5.80
2018-04-27T06:46:24.239Z,6.27
2018-04-27T06:48:51.693Z,5.77
2018-04-27T06:51:19.146Z,5.30
2018-04-27T06:53:46.619Z,5.80
2018-04-27T06:56:14.078Z,5.50
2018-04-27T06:58:42.318Z,4.93
2018-04-27T07:01:09.762Z,5.30
2018-04-27T07:03:37.272Z,6.80
2018-04-27T07:06:08.379Z,7.27
2018-04-27T07:08:36.614Z,6.77
2018-04-27T07:11:04.142Z,6.33
2018-04-27T07:13:32.366Z,6.60
2018-04-27T07:15:59.903Z,6.87
2018-04-27T07:18:27.384Z,7.23
2018-04-27T07:20:54.851Z,6.43
2018-04-27T07:23:22.302Z,6.00
2018-04-27T07:25:49.806Z,5.30
2018-04-27T07:28:17.254Z,3.90
2018-04-27T07:30:44.707Z,4.77
2018-04-27T07:33:12.180Z,4.03
2018-04-27T07:35:39.647Z,4.13
2018-04-27T07:38:07.135Z,4.37
2018-04-27T07:40:34.720Z,5.07
2018-04-27T07:43:02.277Z,4.60
2018-04-27T07:45:29.720Z,4.33
2018-04-27T07:47:58.030Z,4.87
2018-04-27T07:50:26.282Z,4.67
2018-04-27T07:52:53.730Z,4.60
2018-04-27T07:55:21.249Z,6.23
2018-04-27T07:57:48.675Z,4.60
2018-04-27T08:00:16.119Z,4.77
2018-04-27T08:02:44.414Z,13.87
2018-04-27T08:05:11.854Z,4.10
2018-04-27T08:07:39.319Z,3.57
2018-04-27T08:10:06.784Z,5.37
2018-04-27T08:12:34.279Z,4.20
2018-04-27T08:15:01.713Z,4.90
2018-04-27T08:17:29.535Z,4.63
2018-04-27T08:19:56.988Z,4.40
2018-04-27T08:22:24.608Z,5.80
2018-04-27T08:24:52.821Z,5.30
2018-04-27T08:27:20.282Z,4.37
2018-04-27T08:29:48.536Z,4.80
2018-04-27T08:32:16.016Z,4.93
2018-04-27T08:34:43.465Z,4.80
2018-04-27T08:37:10.939Z,4.13
2018-04-27T08:39:38.419Z,3.80
2018-04-27T08:42:05.846Z,4.60
2018-04-27T08:44:34.082Z,4.17
2018-04-27T08:47:01.521Z,3.63
2018-04-27T08:49:29.726Z,4.03
2018-04-27T08:51:57.179Z,3.90
2018-04-27T08:54:24.647Z,4.20
2018-04-27T08:56:52.117Z,4.67
2018-04-27T08:59:19.629Z,4.20
2018-04-27T09:01:47.198Z,3.53
2018-04-27T09:04:15.503Z,3.70
2018-04-27T09:06:43.716Z,3.50
2018-04-27T09:09:11.202Z,4.10
2018-04-27T09:11:38.669Z,4.40
2018-04-27T09:14:07.646Z,5.20
2018-04-27T09:16:35.906Z,3.23
2018-04-27T09:19:03.384Z,3.50
2018-04-27T09:21:30.836Z,3.30
2018-04-27T09:23:58.288Z,3.80
2018-04-27T09:26:25.744Z,2.80
2018-04-27T09:28:53.218Z,3.17
2018-04-27T09:31:20.796Z,2.87
2018-04-27T09:33:48.234Z,2.90
2018-04-27T09:36:16.062Z,2.63
2018-04-27T09:38:43.499Z,2.50
2018-04-27T09:41:11.733Z,2.50
2018-04-27T09:43:39.199Z,2.47
2018-04-27T09:46:06.671Z,3.50
2018-04-27T09:48:34.107Z,2.70
2018-04-27T09:51:01.575Z,1.97
2018-04-27T09:53:29.304Z,2.60
2018-04-27T09:55:56.767Z,2.90
2018-04-27T09:58:24.222Z,2.23
2018-04-27T10:00:52.480Z,3.00
2018-04-27T10:03:20.044Z,2.07
2018-04-27T10:05:47.595Z,2.60
2018-04-27T10:08:14.982Z,2.50
2018-04-27T10:10:42.487Z,2.17
2018-04-27T10:13:09.952Z,2.40
2018-04-27T10:15:37.602Z,2.70
2018-04-27T10:18:05.822Z,2.30
2018-04-27T10:20:33.305Z,2.30
2018-04-27T10:23:00.791Z,2.40
2018-04-27T10:28:01.898Z,2.37
2018-04-27T10:30:29.345Z,2.07
2018-04-27T10:32:56.830Z,2.10
2018-04-27T10:35:24.277Z,2.20
2018-04-27T10:37:51.838Z,2.37
2018-04-27T10:40:20.035Z,2.10
2018-04-27T10:42:47.518Z,1.90
2018-04-27T10:45:14.997Z,1.50
2018-04-27T10:47:42.481Z,1.43
2018-04-27T10:50:10.032Z,2.23
2018-04-27T10:52:37.608Z,2.20
2018-04-27T10:55:05.840Z,2.30
2018-04-27T10:57:34.210Z,2.00
2018-04-27T11:00:02.507Z,2.83
2018-04-27T11:02:29.963Z,2.23
2018-04-27T11:04:57.471Z,2.13
2018-04-27T11:07:24.935Z,2.20
2018-04-27T11:09:52.373Z,3.40
2018-04-27T11:12:20.580Z,2.70
2018-04-27T11:14:48.059Z,2.33
2018-04-27T11:17:16.278Z,2.20
2018-04-27T11:19:43.834Z,2.10
2018-04-27T11:22:12.067Z,1.80
2018-04-27T11:24:39.546Z,2.17
2018-04-27T11:27:06.986Z,1.83
2018-04-27T11:29:34.501Z,2.40
2018-04-27T11:32:02.725Z,2.53
2018-04-27T11:34:31.033Z,2.30
2018-04-27T11:36:59.228Z,2.67
2018-04-27T11:39:26.719Z,2.43
2018-04-27T11:41:54.215Z,2.23
2018-04-27T11:44:21.698Z,2.10
2018-04-27T11:46:49.191Z,2.97
2018-04-27T11:49:16.641Z,2.33
2018-04-27T11:51:44.100Z,2.87
2018-04-27T11:54:11.518Z,2.50
2018-04-27T11:56:38.980Z,3.30
2018-04-27T11:59:06.448Z,2.47
2018-04-27T12:01:33.921Z,2.43
2018-04-27T12:04:01.392Z,2.10
2018-04-27T12:06:28.876Z,2.43
2018-04-27T12:08:56.319Z,2.20
2018-04-27T12:11:23.784Z,2.43
2018-04-27T12:13:51.268Z,2.50
2018-04-27T12:16:18.712Z,2.27
2018-04-27T12:18:46.938Z,2.60
2018-04-27T12:21:14.393Z,2.60
2018-04-27T12:23:45.613Z,2.40
2018-04-27T12:26:13.160Z,2.17
2018-04-27T12:28:40.553Z,2.70
2018-04-27T12:31:08.037Z,2.50
2018-04-27T12:33:35.513Z,2.17
2018-04-27T12:36:03.700Z,2.10
2018-04-27T12:38:31.228Z,1.70
2018-04-27T12:40:59.435Z,2.60
2018-04-27T12:43:26.913Z,2.50
2018-04-27T12:45:54.476Z,2.73
2018-04-27T12:48:22.769Z,2.30
2018-04-27T12:50:50.961Z,2.00
2018-04-27T12:53:18.446Z,2.60
2018-04-27T12:55:45.874Z,2.10
2018-04-27T12:58:13.340Z,2.70
2018-04-27T13:00:40.784Z,2.50
2018-04-27T13:03:08.335Z,2.33
2018-04-27T13:05:36.565Z,2.00
2018-04-27T13:08:04.025Z,2.40
2018-04-27T13:10:31.497Z,2.63
2018-04-27T13:12:58.947Z,2.53
2018-04-27T13:15:26.426Z,2.13
2018-04-27T13:17:53.878Z,2.57
2018-04-27T13:20:22.107Z,2.00
2018-04-27T13:22:49.564Z,2.33
2018-04-27T13:25:17.031Z,2.10
2018-04-27T13:27:45.245Z,2.67
2018-04-27T13:30:12.743Z,2.30
2018-04-27T13:32:40.235Z,2.37
2018-04-27T13:35:07.684Z,1.90
2018-04-27T13:37:35.850Z,2.20
2018-04-27T13:40:04.082Z,2.63
2018-04-27T13:42:31.556Z,2.70
2018-04-27T13:44:59.022Z,2.47
2018-04-27T13:47:26.489Z,2.70
2018-04-27T13:49:53.949Z,2.30
2018-04-27T13:52:21.435Z,1.80
2018-04-27T13:54:48.887Z,2.73
2018-04-27T13:57:17.169Z,2.67
2018-04-27T13:59:44.568Z,2.10
2018-04-27T14:02:12.038Z,1.97
2018-04-27T14:07:17.997Z,1.80
2018-04-27T14:09:45.506Z,2.30
2018-04-27T14:12:12.929Z,1.90
2018-04-27T14:14:40.477Z,2.53
2018-04-27T14:17:07.945Z,2.20
2018-04-27T14:19:35.451Z,2.13
2018-04-27T14:22:02.972Z,1.97
2018-04-27T14:24:30.467Z,2.50
2018-04-27T14:26:58.849Z,2.40
2018-04-27T14:29:26.527Z,2.03
2018-04-27T14:31:54.368Z,1.93
2018-04-27T14:34:21.893Z,2.13
2018-04-27T14:36:50.400Z,2.40
2018-04-27T14:39:17.959Z,2.00
2018-04-27T14:41:46.205Z,1.97
2018-04-27T14:44:13.676Z,2.40
2018-04-27T14:46:41.207Z,2.60
2018-04-27T14:49:08.852Z,2.00
2018-04-27T14:51:36.442Z,2.07
2018-04-27T14:54:03.999Z,2.40
2018-04-27T14:56:31.525Z,2.50
2018-04-27T14:58:59.834Z,2.27
2018-04-27T15:01:27.504Z,2.00
2018-04-27T15:03:55.022Z,2.00
2018-04-27T15:06:22.513Z,1.93
2018-04-27T15:08:50.050Z,2.20
2018-04-27T15:11:17.617Z,2.20
2018-04-27T15:13:45.158Z,1.97
2018-04-27T15:16:12.611Z,1.90
2018-04-27T15:18:40.060Z,2.17
2018-04-27T15:21:07.775Z,2.00
2018-04-27T15:23:35.222Z,2.13
2018-04-27T15:26:02.800Z,2.87
2018-04-27T15:28:30.294Z,2.20
2018-04-27T15:30:57.775Z,1.77
2018-04-27T15:33:25.220Z,1.73
2018-04-27T15:35:52.716Z,2.00
2018-04-27T15:38:20.290Z,2.40
2018-04-27T15:40:47.800Z,1.83
2018-04-27T15:43:16.077Z,1.80
2018-04-27T15:45:43.574Z,1.90
2018-04-27T15:48:11.824Z,1.87
2018-04-27T15:50:39.327Z,2.00
2018-04-27T15:53:06.888Z,2.20
2018-04-27T15:55:34.769Z,1.70
2018-04-27T15:58:02.377Z,1.20
2018-04-27T16:00:29.874Z,1.47
2018-04-27T16:02:58.297Z,2.03
2018-04-27T16:05:26.264Z,1.83
2018-04-27T16:07:54.748Z,1.70
2018-04-27T16:23:17.293Z,1.70
2018-04-27T16:25:44.777Z,1.90
2018-04-27T16:28:12.345Z,2.33
2018-04-27T16:30:39.972Z,2.50
2018-04-27T16:33:07.517Z,2.07
2018-04-27T16:35:35.679Z,1.90
2018-04-27T16:38:04.657Z,1.80
2018-04-27T16:40:32.183Z,1.83
2018-04-27T16:42:59.703Z,2.20
2018-04-27T16:45:27.385Z,1.80
2018-04-27T16:47:54.840Z,1.93
2018-04-27T16:50:27.098Z,2.00
2018-04-27T16:52:54.639Z,2.77
2018-04-27T16:55:22.989Z,2.10
2018-04-27T16:57:50.871Z,1.83
2018-04-27T17:00:18.986Z,2.93
2018-04-27T17:02:50.871Z,2.70
2018-04-27T17:05:18.414Z,2.10
2018-04-27T17:07:45.921Z,2.83
2018-04-27T17:10:13.620Z,1.97
2018-04-27T17:12:41.656Z,1.57
2018-04-27T17:15:09.158Z,1.73
2018-04-27T17:22:40.192Z,1.77
2018-04-27T17:25:09.222Z,1.73
2018-04-27T17:27:37.595Z,2.20
2018-04-27T17:30:05.437Z,1.80
2018-04-27T17:32:33.035Z,2.03
2018-04-27T17:35:00.672Z,1.70
2018-04-27T17:37:28.189Z,1.93
2018-04-27T17:39:55.674Z,2.03
2018-04-27T17:42:23.265Z,2.20
2018-04-27T17:44:50.913Z,1.97
2018-04-27T17:47:18.677Z,1.90
2018-04-27T17:49:47.982Z,2.40
2018-04-27T17:52:15.528Z,2.67
2018-04-27T17:54:43.048Z,2.50
2018-04-27T17:59:42.309Z,2.10
2018-04-27T18:02:10.097Z,2.13
2018-04-27T18:04:37.766Z,2.53
2018-04-27T18:07:05.883Z,1.97
2018-04-27T18:09:33.426Z,2.40
2018-04-27T18:12:01.407Z,2.00
2018-04-27T18:14:29.213Z,2.00
2018-04-27T18:16:57.271Z,2.67
2018-04-27T18:19:24.948Z,2.50
2018-04-27T18:21:53.436Z,2.10
2018-04-27T18:24:21.212Z,2.03
2018-04-27T18:26:49.622Z,2.07
2018-04-27T18:29:17.424Z,2.50
2018-04-27T18:31:45.858Z,1.60
2018-04-27T18:34:13.565Z,2.30
2018-04-27T18:36:41.371Z,1.80
2018-04-27T18:41:41.578Z,2.73
2018-04-27T18:44:09.385Z,2.60
2018-04-27T18:46:41.110Z,3.60
2018-04-27T18:49:10.471Z,3.27
2018-04-27T18:51:38.764Z,3.20
2018-04-27T18:54:10.146Z,4.97
2018-04-27T18:59:10.999Z,3.77
2018-04-27T19:01:39.466Z,2.60
2018-04-27T19:04:07.065Z,2.73
2018-04-27T19:06:34.694Z,2.63
2018-04-27T19:09:03.161Z,3.13
2018-04-27T19:11:30.759Z,2.80
2018-04-27T19:13:58.357Z,2.47
2018-04-27T19:16:30.285Z,3.00
2018-04-27T19:19:04.536Z,2.60
2018-04-27T19:21:32.157Z,3.40
2018-04-27T19:23:59.611Z,3.77
2018-04-27T19:26:27.098Z,4.10
2018-04-27T19:28:55.203Z,3.20
2018-04-27T19:31:22.730Z,3.40
2018-04-27T19:33:51.061Z,4.03
2018-04-27T19:36:18.541Z,4.20
2018-04-27T19:38:46.012Z,3.67
2018-04-27T19:41:13.733Z,4.00
2018-04-27T19:43:41.337Z,4.20
2018-04-27T19:46:08.780Z,3.43
2018-04-27T19:48:36.285Z,4.43
2018-04-27T19:51:03.731Z,4.37
2018-04-27T19:53:31.203Z,4.43
2018-04-27T19:55:59.429Z,4.60
2018-04-27T19:58:27.033Z,4.17
2018-04-27T20:00:54.519Z,4.80
2018-04-27T20:03:22.049Z,5.10
2018-04-27T20:05:49.556Z,5.10
2018-04-27T20:08:21.449Z,4.97
2018-04-27T20:10:49.772Z,5.77
2018-04-27T20:13:19.477Z,4.70
2018-04-27T20:16:02.379Z,5.40
2018-04-27T20:18:29.906Z,5.50
2018-04-27T20:21:00.865Z,4.80
2018-04-27T20:23:34.945Z,5.00
2018-04-27T20:26:06.053Z,4.33
2018-04-27T20:28:38.154Z,4.57
2018-04-27T20:31:05.676Z,4.67
2018-04-27T20:33:33.170Z,5.70
2018-04-27T20:36:05.363Z,4.63
2018-04-27T20:38:33.647Z,4.40
2018-04-27T20:41:18.441Z,3.87
2018-04-27T20:43:46.731Z,4.30
2018-04-27T20:46:14.244Z,5.00
2018-04-27T20:48:43.431Z,4.40
2018-04-27T20:51:12.272Z,4.53
2018-04-27T20:53:41.583Z,4.10
2018-04-27T20:56:09.052Z,4.03
2018-04-27T20:58:36.521Z,5.77
2018-04-27T21:01:03.998Z,5.00
2018-04-27T21:03:32.211Z,5.60
2018-04-27T21:05:59.708Z,4.70
2018-04-27T21:08:27.247Z,5.27
2018-04-27T21:10:54.757Z,5.00
2018-04-27T21:13:23.042Z,5.20
2018-04-27T21:15:50.536Z,4.77
2018-04-27T21:18:18.003Z,6.40
2018-04-27T21:20:45.514Z,4.67
2018-04-27T21:23:13.767Z,5.60
2018-04-27T21:25:44.774Z,6.00
2018-04-27T21:28:14.196Z,6.40
2018-04-27T21:30:45.403Z,6.90
2018-04-27T21:33:13.010Z,5.70
2018-04-27T21:35:49.857Z,5.80
2018-04-27T21:41:21.833Z,5.63
2018-04-27T21:43:50.959Z,6.63
2018-04-27T21:46:26.235Z,5.50
2018-04-27T21:48:54.330Z,4.83
2018-04-27T21:54:32.760Z,5.10
2018-04-27T21:57:20.771Z,4.03
2018-04-27T21:59:54.853Z,4.17
2018-04-27T22:05:44.809Z,5.30
2018-04-27T22:08:29.902Z,5.63
2018-04-27T22:11:00.117Z,5.43
2018-04-27T22:13:28.461Z,4.70
2018-04-27T22:15:55.936Z,4.30
2018-04-27T22:18:23.437Z,4.60
2018-04-27T22:20:52.745Z,3.83
2018-04-27T22:23:21.027Z,3.77
2018-04-27T22:25:48.504Z,3.90
2018-04-27T22:28:36.752Z,3.57
2018-04-27T22:31:05.612Z,4.27
2018-04-27T22:33:36.576Z,3.43
2018-04-27T22:36:27.260Z,4.37
2018-04-27T22:42:07.772Z,3.00
2018-04-27T22:44:41.935Z,3.27
2018-04-27T22:47:11.161Z,3.40
2018-04-27T22:49:38.634Z,3.43
2018-04-27T22:52:06.144Z,3.50
2018-04-27T22:54:56.181Z,3.20
2018-04-27T22:57:25.367Z,3.90
2018-04-27T23:02:50.126Z,3.30
2018-04-27T23:05:30.204Z,3.50
2018-04-27T23:07:59.270Z,3.40
2018-04-27T23:10:26.732Z,3.33
2018-04-27T23:13:00.854Z,3.57
2018-04-27T23:15:36.980Z,3.97
2018-04-27T23:18:07.958Z,3.30
2018-04-27T23:20:35.418Z,4.20
2018-04-27T23:23:06.461Z,4.07
2018-04-27T23:25:34.643Z,4.10
2018-04-27T23:28:02.122Z,4.50
2018-04-27T23:30:31.162Z,3.80
2018-04-27T23:32:59.381Z,3.30
2018-04-27T23:35:26.842Z,3.40
2018-04-27T23:37:54.329Z,3.57
2018-04-27T23:40:21.773Z,3.50
2018-04-27T23:42:49.234Z,2.37
2018-04-27T23:45:16.687Z,3.10
2018-04-27T23:47:45.930Z,2.70
2018-04-27T23:50:14.163Z,2.60
2018-04-27T23:52:41.614Z,2.17
2018-04-27T23:55:09.064Z,2.30
2018-04-27T23:57:36.674Z,2.63
